createdAt,value
2018-04-13T00:00:22.540Z,21.57
2018-04-13T00:02:50.389Z,18.47
2018-04-13T00:05:18.231Z,18.80
2018-04-13T00:07:46.272Z,16.10
2018-04-13T00:10:14.132Z,18.73
2018-04-13T00:12:41.881Z,17.83
2018-04-13T00:15:09.906Z,17.77
2018-04-13T00:17:37.743Z,18.80
2018-04-13T00:20:07.048Z,20.27
2018-04-13T00:22:34.865Z,26.50
2018-04-13T00:25:02.899Z,18.33
2018-04-13T00:27:43.319Z,24.70
2018-04-13T00:30:12.277Z,22.73
2018-04-13T00:32:40.194Z,22.73
2018-04-13T00:35:08.998Z,19.47
2018-04-13T00:37:36.721Z,20.83
2018-04-13T00:40:04.536Z,19.37
2018-04-13T00:42:35.412Z,20.23
2018-04-13T00:45:03.243Z,18.73
2018-04-13T00:47:32.320Z,23.80
2018-04-13T00:50:01.072Z,25.77
2018-04-13T00:52:28.987Z,22.37
2018-04-13T00:54:57.424Z,20.00
2018-04-13T00:57:26.071Z,20.33
2018-04-13T00:59:54.756Z,22.20
2018-04-13T01:02:23.251Z,20.97
2018-04-13T01:04:51.094Z,29.90
2018-04-13T01:07:18.956Z,25.07
2018-04-13T01:09:47.572Z,20.63
2018-04-13T01:12:15.382Z,20.93
2018-04-13T01:14:43.139Z,19.63
2018-04-13T01:17:10.960Z,24.50
2018-04-13T01:19:39.749Z,21.30
2018-04-13T01:22:07.659Z,20.77
2018-04-13T01:24:35.679Z,21.43
2018-04-13T01:27:04.256Z,19.60
2018-04-13T01:29:32.145Z,21.07
2018-04-13T01:31:59.836Z,19.17
2018-04-13T01:34:29.270Z,19.03
2018-04-13T01:36:58.635Z,23.63
2018-04-13T01:39:26.410Z,22.87
2018-04-13T01:41:54.141Z,21.07
2018-04-13T01:44:22.806Z,23.83
2018-04-13T01:46:51.544Z,21.93
2018-04-13T01:49:19.377Z,29.00
2018-04-13T01:51:47.100Z,25.13
2018-04-13T01:54:14.984Z,27.53
2018-04-13T01:56:43.308Z,25.20
2018-04-13T01:59:11.054Z,24.37
2018-04-13T02:01:38.766Z,28.47
2018-04-13T02:04:07.260Z,30.57
2018-04-13T02:06:35.066Z,32.67
2018-04-13T02:09:03.612Z,28.93
2018-04-13T02:11:31.438Z,23.50
2018-04-13T02:13:59.186Z,28.17
2018-04-13T02:16:26.921Z,32.30
2018-04-13T02:18:54.697Z,22.80
2018-04-13T02:21:22.461Z,25.80
2018-04-13T02:23:50.163Z,26.63
2018-04-13T02:26:18.969Z,27.20
2018-04-13T02:28:47.491Z,21.80
2018-04-13T02:31:15.245Z,28.53
2018-04-13T02:33:42.940Z,30.00
2018-04-13T02:36:10.689Z,30.83
2018-04-13T02:38:39.375Z,23.47
2018-04-13T02:41:07.164Z,30.80
2018-04-13T02:43:35.799Z,27.70
2018-04-13T02:46:03.707Z,25.60
2018-04-13T02:48:32.399Z,32.33
2018-04-13T02:51:00.171Z,25.97
2018-04-13T02:53:27.919Z,35.87
2018-04-13T02:55:56.647Z,34.80
2018-04-13T02:58:24.379Z,37.20
2018-04-13T03:00:52.306Z,34.50
2018-04-13T03:03:20.235Z,34.50
2018-04-13T03:05:47.992Z,35.40
2018-04-13T03:08:16.507Z,34.08
2018-04-13T03:10:44.491Z,30.80
2018-04-13T03:13:12.232Z,31.47
2018-04-13T03:15:40.127Z,39.80
2018-04-13T03:18:08.788Z,35.73
2018-04-13T03:20:36.546Z,28.83
2018-04-13T03:23:05.120Z,39.20
2018-04-13T03:25:33.968Z,32.30
2018-04-13T03:28:02.343Z,36.13
2018-04-13T03:30:30.156Z,30.57
2018-04-13T03:32:57.874Z,31.03
2018-04-13T03:35:25.584Z,31.77
2018-04-13T03:37:53.334Z,29.97
2018-04-13T03:40:21.338Z,36.57
2018-04-13T03:42:49.256Z,30.43
2018-04-13T03:45:20.013Z,28.37
2018-04-13T03:47:47.754Z,35.90
2018-04-13T03:50:16.404Z,32.53
2018-04-13T03:52:44.181Z,29.13
2018-04-13T03:55:12.061Z,28.33
2018-04-13T03:57:40.397Z,26.87
2018-04-13T04:00:08.276Z,29.40
2018-04-13T04:02:36.069Z,29.10
2018-04-13T04:05:03.843Z,28.27
2018-04-13T04:07:31.861Z,30.33
2018-04-13T04:09:59.615Z,25.00
2018-04-13T04:12:27.434Z,22.50
2018-04-13T04:14:55.487Z,25.43
2018-04-13T04:17:23.307Z,29.40
2018-04-13T04:20:02.801Z,26.60
2018-04-13T04:22:42.381Z,28.27
2018-04-13T04:25:19.722Z,25.87
2018-04-13T04:27:47.545Z,28.40
2018-04-13T04:30:17.276Z,30.67
2018-04-13T04:32:45.132Z,29.77
2018-04-13T04:35:13.479Z,29.17
2018-04-13T04:37:42.970Z,28.67
2018-04-13T04:40:11.168Z,29.70
2018-04-13T04:42:39.049Z,28.00
2018-04-13T04:45:07.097Z,26.93
2018-04-13T04:47:35.028Z,27.53
2018-04-13T04:50:03.121Z,26.17
2018-04-13T04:52:31.252Z,25.07
2018-04-13T04:54:59.629Z,23.10
2018-04-13T04:57:27.602Z,24.13
2018-04-13T04:59:56.621Z,20.07
2018-04-13T05:02:24.533Z,19.17
2018-04-13T05:04:53.474Z,27.63
2018-04-13T05:07:21.522Z,22.20
2018-04-13T05:09:49.299Z,25.60
2018-04-13T05:12:17.237Z,20.40
2018-04-13T05:14:45.198Z,23.10
2018-04-13T05:17:13.386Z,21.07
2018-04-13T05:19:41.439Z,18.47
2018-04-13T05:22:09.375Z,18.33
2018-04-13T05:24:38.636Z,19.40
2018-04-13T05:27:06.769Z,23.33
2018-04-13T05:29:35.671Z,23.70
2018-04-13T05:32:03.762Z,20.37
2018-04-13T05:34:32.531Z,21.17
2018-04-13T05:37:00.459Z,19.93
2018-04-13T05:39:29.909Z,19.83
2018-04-13T05:41:57.895Z,23.17
2018-04-13T05:44:25.853Z,23.77
2018-04-13T05:46:54.871Z,18.03
2018-04-13T05:49:23.067Z,22.43
2018-04-13T05:51:51.143Z,18.90
2018-04-13T05:54:19.256Z,20.53
2018-04-13T05:56:48.051Z,20.43
2018-04-13T05:59:16.707Z,22.73
2018-04-13T06:01:44.674Z,24.70
2018-04-13T06:04:12.692Z,16.07
2018-04-13T06:06:41.350Z,17.67
2018-04-13T06:09:11.441Z,19.63
2018-04-13T06:11:39.213Z,16.60
2018-04-13T06:14:07.209Z,16.57
2018-04-13T06:16:35.342Z,21.73
2018-04-13T06:19:03.295Z,25.00
2018-04-13T06:21:32.033Z,18.30
2018-04-13T06:24:00.005Z,23.53
2018-04-13T06:26:28.175Z,26.53
2018-04-13T06:28:56.195Z,20.60
2018-04-13T06:31:24.174Z,17.03
2018-04-13T06:33:52.068Z,16.30
2018-04-13T06:36:19.975Z,22.63
2018-04-13T06:38:48.017Z,19.83
2018-04-13T06:41:15.901Z,19.00
2018-04-13T06:43:44.005Z,22.00
2018-04-13T06:46:12.985Z,18.63
2018-04-13T06:48:40.956Z,17.93
2018-04-13T06:51:09.018Z,18.37
2018-04-13T06:53:39.653Z,19.03
2018-04-13T06:56:14.578Z,24.20
2018-04-13T06:58:43.325Z,15.60
2018-04-13T07:01:11.609Z,16.90
2018-04-13T07:03:40.730Z,23.67
2018-04-13T07:06:09.900Z,15.13
2018-04-13T07:08:38.334Z,18.13
2018-04-13T07:11:08.358Z,12.03
2018-04-13T07:13:38.862Z,15.70
2018-04-13T07:16:08.413Z,11.63
2018-04-13T07:18:36.639Z,11.73
2018-04-13T07:21:05.825Z,12.13
2018-04-13T07:23:33.932Z,8.73
2018-04-13T07:26:02.786Z,9.53
2018-04-13T07:28:30.912Z,8.50
2018-04-13T07:30:59.507Z,10.60
2018-04-13T07:33:28.348Z,21.93
2018-04-13T07:35:56.614Z,8.30
2018-04-13T07:38:25.278Z,7.60
2018-04-13T07:40:54.835Z,8.20
2018-04-13T07:43:24.569Z,8.13
2018-04-13T07:45:54.285Z,9.70
2018-04-13T07:48:22.604Z,10.13
2018-04-13T07:50:50.944Z,15.03
2018-04-13T07:53:19.930Z,13.30
2018-04-13T07:55:47.997Z,15.07
2018-04-13T07:58:16.011Z,16.33
2018-04-13T08:00:44.167Z,16.30
2018-04-13T08:03:12.180Z,21.03
2018-04-13T08:05:41.279Z,20.23
2018-04-13T08:08:10.409Z,15.20
2018-04-13T08:10:38.905Z,14.83
2018-04-13T08:13:07.108Z,16.47
2018-04-13T08:15:35.446Z,15.57
2018-04-13T08:18:04.055Z,17.40
2018-04-13T08:20:32.920Z,14.50
2018-04-13T08:23:02.913Z,15.17
2018-04-13T08:25:34.115Z,14.80
2018-04-13T08:28:02.630Z,15.37
2018-04-13T08:30:30.807Z,10.30
2018-04-13T08:32:58.917Z,11.23
2018-04-13T08:35:27.456Z,11.00
2018-04-13T08:37:56.402Z,15.20
2018-04-13T08:40:25.210Z,17.80
2018-04-13T08:42:53.548Z,16.53
2018-04-13T08:45:23.656Z,22.30
2018-04-13T08:47:52.745Z,22.80
2018-04-13T08:50:21.589Z,35.03
2018-04-13T08:52:50.554Z,31.97
2018-04-13T08:55:19.324Z,45.43
2018-04-13T08:57:47.733Z,64.23
2018-04-13T09:00:16.640Z,46.30
2018-04-13T09:02:45.345Z,46.27
2018-04-13T09:05:14.711Z,38.83
2018-04-13T09:07:43.977Z,47.10
2018-04-13T09:10:14.004Z,44.27
2018-04-13T09:12:44.778Z,45.17
2018-04-13T09:15:14.941Z,46.20
2018-04-13T09:17:44.340Z,55.80
2018-04-13T09:20:13.527Z,54.37
2018-04-13T09:22:43.246Z,47.40
2018-04-13T09:25:13.288Z,39.13
2018-04-13T09:27:42.894Z,39.07
2018-04-13T09:30:14.705Z,45.03
2018-04-13T09:32:50.933Z,67.30
2018-04-13T09:35:27.077Z,68.07
2018-04-13T09:37:57.782Z,63.33
2018-04-13T09:40:28.691Z,61.90
2018-04-13T09:42:59.162Z,61.57
2018-04-13T09:45:28.304Z,62.13
2018-04-13T09:48:01.869Z,57.57
2018-04-13T09:53:14.143Z,44.33
2018-04-13T09:55:54.578Z,57.20
2018-04-13T09:58:28.247Z,49.77
2018-04-13T10:01:03.091Z,49.07
2018-04-13T10:03:39.382Z,41.20
2018-04-13T10:06:11.509Z,42.15
2018-04-13T10:08:45.153Z,44.90
2018-04-13T10:11:17.130Z,41.60
2018-04-13T10:13:50.247Z,47.13
2018-04-13T10:16:23.626Z,40.10
2018-04-13T10:18:55.957Z,32.90
2018-04-13T10:21:28.278Z,30.07
2018-04-13T10:24:02.759Z,35.40
2018-04-13T10:26:35.240Z,25.47
2018-04-13T10:29:06.579Z,27.20
2018-04-13T10:31:39.033Z,26.33
2018-04-13T10:34:11.378Z,29.63
2018-04-13T10:36:44.301Z,32.53
2018-04-13T10:39:17.720Z,32.17
2018-04-13T10:41:50.013Z,31.70
2018-04-13T10:44:23.034Z,29.40
2018-04-13T10:46:54.567Z,30.93
2018-04-13T10:49:27.186Z,36.17
2018-04-13T10:52:00.956Z,27.00
2018-04-13T10:54:33.630Z,27.40
2018-04-13T10:57:05.613Z,24.73
2018-04-13T10:59:38.372Z,31.47
2018-04-13T11:02:10.629Z,31.10
2018-04-13T11:04:46.210Z,31.40
2018-04-13T11:07:20.751Z,31.73
2018-04-13T11:09:52.611Z,27.03
2018-04-13T11:12:25.223Z,28.47
2018-04-13T11:14:58.088Z,28.90
2018-04-13T11:17:36.848Z,24.90
2018-04-13T11:37:23.584Z,10.63
2018-04-13T11:39:55.244Z,11.20
2018-04-13T11:42:26.579Z,7.27
2018-04-13T11:44:59.359Z,6.30
2018-04-13T11:47:32.397Z,4.60
2018-04-13T11:50:05.061Z,5.97
2018-04-13T11:52:36.718Z,3.30
2018-04-13T11:55:09.029Z,5.67
2018-04-13T11:57:41.501Z,3.80
2018-04-13T12:00:14.486Z,3.97
2018-04-13T12:02:47.217Z,3.33
2018-04-13T12:05:20.182Z,3.50
2018-04-13T12:07:52.705Z,3.70
2018-04-13T12:10:25.163Z,3.47
2018-04-13T12:12:56.816Z,4.97
2018-04-13T12:15:28.554Z,5.20
2018-04-13T12:18:00.073Z,3.07
2018-04-13T12:20:32.065Z,3.93
2018-04-13T12:23:03.300Z,3.10
2018-04-13T12:25:35.568Z,3.90
2018-04-13T12:28:06.531Z,3.63
2018-04-13T12:30:38.683Z,3.33
2018-04-13T12:33:09.846Z,3.50
2018-04-13T12:35:42.394Z,3.63
2018-04-13T12:38:13.280Z,3.63
2018-04-13T12:40:44.601Z,3.57
2018-04-13T12:43:16.241Z,7.13
2018-04-13T12:45:47.446Z,3.37
2018-04-13T12:48:18.521Z,3.10
2018-04-13T12:50:50.291Z,3.67
2018-04-13T12:53:22.065Z,3.10
2018-04-13T12:55:54.005Z,2.97
2018-04-13T12:58:24.512Z,3.53
2018-04-13T13:00:55.566Z,3.47
2018-04-13T13:03:26.624Z,3.40
2018-04-13T13:05:57.079Z,2.90
2018-04-13T13:08:27.824Z,3.50
2018-04-13T13:10:58.415Z,3.50
2018-04-13T13:13:30.509Z,9.63
2018-04-13T13:16:02.762Z,3.30
2018-04-13T13:18:34.377Z,3.63
2018-04-13T13:21:06.070Z,4.23
2018-04-13T13:23:37.240Z,3.80
2018-04-13T13:26:09.684Z,4.00
2018-04-13T13:28:40.640Z,3.43
2018-04-13T13:31:11.876Z,3.30
2018-04-13T13:33:43.059Z,3.90
2018-04-13T13:36:15.688Z,3.70
2018-04-13T13:38:46.210Z,4.00
2018-04-13T13:41:17.586Z,4.33
2018-04-13T13:43:47.876Z,4.10
2018-04-13T13:46:18.741Z,3.03
2018-04-13T13:48:49.997Z,3.47
2018-04-13T13:51:21.749Z,2.67
2018-04-13T13:53:53.637Z,3.10
2018-04-13T13:56:25.176Z,4.07
2018-04-13T13:58:55.835Z,3.03
2018-04-13T14:01:26.026Z,5.40
2018-04-13T14:03:56.851Z,3.27
2018-04-13T14:06:28.502Z,3.90
2018-04-13T14:08:59.661Z,3.30
2018-04-13T14:11:30.364Z,3.63
2018-04-13T14:14:01.745Z,6.43
2018-04-13T14:16:33.082Z,3.70
2018-04-13T14:19:03.696Z,3.50
2018-04-13T14:21:35.515Z,4.30
2018-04-13T14:24:05.913Z,3.90
2018-04-13T14:26:37.051Z,4.03
2018-04-13T14:29:08.076Z,6.20
2018-04-13T14:31:39.352Z,3.47
2018-04-13T14:34:10.630Z,3.30
2018-04-13T14:36:41.079Z,3.10
2018-04-13T14:39:12.923Z,3.37
2018-04-13T14:41:44.733Z,3.17
2018-04-13T14:44:16.682Z,3.50
2018-04-13T14:46:46.599Z,4.43
2018-04-13T14:49:16.750Z,3.57
2018-04-13T14:51:48.211Z,3.30
2018-04-13T14:54:24.818Z,3.47
2018-04-13T14:57:01.281Z,3.50
2018-04-13T14:59:37.686Z,3.17
2018-04-13T15:02:08.736Z,3.00
2018-04-13T15:04:39.107Z,3.20
2018-04-13T15:07:10.841Z,3.60
2018-04-13T15:09:40.367Z,3.67
2018-04-13T15:12:11.291Z,3.20
2018-04-13T15:14:44.420Z,8.20
2018-04-13T15:17:14.747Z,4.33
2018-04-13T15:19:44.348Z,2.97
2018-04-13T15:22:14.762Z,4.17
2018-04-13T15:24:47.375Z,3.80
2018-04-13T15:27:18.641Z,3.03
2018-04-13T15:29:50.358Z,3.27
2018-04-13T15:32:20.440Z,3.37
2018-04-13T15:34:51.849Z,3.93
2018-04-13T15:37:20.910Z,2.80
2018-04-13T15:39:52.358Z,3.03
2018-04-13T15:42:24.016Z,4.43
2018-04-13T15:44:53.495Z,2.80
2018-04-13T15:47:24.448Z,3.83
2018-04-13T15:49:55.526Z,3.63
2018-04-13T15:52:24.261Z,3.93
2018-04-13T15:54:54.150Z,3.63
2018-04-13T15:57:23.905Z,4.20
2018-04-13T15:59:53.425Z,3.77
2018-04-13T16:02:22.664Z,3.07
2018-04-13T16:04:51.638Z,3.67
2018-04-13T16:07:20.962Z,9.40
2018-04-13T16:09:51.023Z,3.07
2018-04-13T16:12:20.455Z,3.33
2018-04-13T16:14:50.864Z,8.93
2018-04-13T16:17:20.182Z,4.03
2018-04-13T16:19:49.571Z,5.10
2018-04-13T16:22:20.057Z,4.17
2018-04-13T16:24:50.290Z,4.47
2018-04-13T16:27:19.787Z,3.40
2018-04-13T16:29:48.653Z,3.80
2018-04-13T16:32:19.391Z,3.87
2018-04-13T16:34:48.011Z,3.40
2018-04-13T16:37:17.525Z,3.87
2018-04-13T16:39:46.274Z,6.40
2018-04-13T16:42:15.019Z,3.23
2018-04-13T16:44:45.288Z,3.07
2018-04-13T16:47:15.019Z,3.50
2018-04-13T16:49:43.967Z,4.83
2018-04-13T16:52:14.301Z,3.93
2018-04-13T16:54:46.435Z,3.47
2018-04-13T16:57:14.803Z,3.50
2018-04-13T16:59:43.572Z,4.50
2018-04-13T17:02:11.773Z,4.07
2018-04-13T17:04:40.698Z,3.70
2018-04-13T17:07:10.902Z,5.93
2018-04-13T17:09:39.593Z,13.67
2018-04-13T17:12:09.209Z,3.13
2018-04-13T17:14:38.005Z,3.33
2018-04-13T17:17:07.139Z,3.07
2018-04-13T17:19:35.683Z,3.33
2018-04-13T17:22:04.180Z,3.13
2018-04-13T17:24:32.539Z,3.97
2018-04-13T17:27:01.235Z,3.70
2018-04-13T17:29:29.779Z,4.20
2018-04-13T17:31:58.252Z,7.40
2018-04-13T17:34:27.192Z,3.37
2018-04-13T17:36:56.636Z,3.33
2018-04-13T17:39:25.914Z,3.43
2018-04-13T17:41:54.654Z,3.50
2018-04-13T17:44:23.952Z,4.23
2018-04-13T17:46:53.239Z,3.20
2018-04-13T17:49:22.544Z,8.83
2018-04-13T17:51:51.605Z,5.80
2018-04-13T17:54:20.406Z,4.07
2018-04-13T17:56:48.987Z,4.23
2018-04-13T17:59:17.551Z,4.50
2018-04-13T18:01:45.556Z,3.93
2018-04-13T18:04:14.904Z,3.83
2018-04-13T18:06:44.931Z,5.00
2018-04-13T18:09:14.338Z,7.67
2018-04-13T18:11:42.600Z,7.57
2018-04-13T18:14:10.829Z,8.73
2018-04-13T18:16:39.808Z,12.20
2018-04-13T18:19:07.845Z,8.40
2018-04-13T18:21:36.402Z,7.07
2018-04-13T18:24:05.055Z,5.27
2018-04-13T18:26:34.566Z,6.10
2018-04-13T18:29:03.270Z,5.53
2018-04-13T18:31:31.228Z,15.70
2018-04-13T18:33:59.440Z,3.93
2018-04-13T18:36:28.120Z,3.80
2018-04-13T18:38:57.388Z,4.50
2018-04-13T18:41:25.364Z,4.00
2018-04-13T18:43:53.342Z,7.03
2018-04-13T18:46:21.785Z,4.20
2018-04-13T18:48:49.756Z,5.90
2018-04-13T18:51:19.616Z,5.37
2018-04-13T18:53:47.935Z,4.50
2018-04-13T18:56:16.485Z,6.60
2018-04-13T18:58:44.638Z,4.70
2018-04-13T19:01:12.548Z,4.83
2018-04-13T19:03:42.415Z,4.30
2018-04-13T19:06:11.146Z,4.37
2018-04-13T19:08:39.177Z,3.67
2018-04-13T19:11:07.499Z,4.20
2018-04-13T19:13:35.630Z,3.70
2018-04-13T19:16:03.794Z,4.93
2018-04-13T19:18:31.789Z,4.40
2018-04-13T19:21:00.667Z,5.20
2018-04-13T19:23:28.811Z,5.30
2018-04-13T19:25:56.917Z,4.20
2018-04-13T19:28:25.683Z,4.60
2018-04-13T19:30:53.959Z,4.53
2018-04-13T19:33:21.958Z,4.70
2018-04-13T19:35:51.140Z,4.47
2018-04-13T19:38:20.458Z,7.70
2018-04-13T19:40:48.921Z,4.90
2018-04-13T19:43:18.153Z,4.27
2018-04-13T19:45:46.081Z,5.27
2018-04-13T19:48:14.465Z,4.77
2018-04-13T19:50:42.495Z,4.60
2018-04-13T19:53:10.605Z,5.90
2018-04-13T19:55:39.684Z,4.90
2018-04-13T19:58:08.053Z,4.67
2018-04-13T20:00:35.957Z,6.03
2018-04-13T20:03:04.732Z,5.40
2018-04-13T20:05:32.829Z,5.30
2018-04-13T20:08:00.852Z,5.53
2018-04-13T20:10:29.683Z,5.53
2018-04-13T20:12:58.566Z,4.47
2018-04-13T20:15:26.531Z,7.13
2018-04-13T20:17:54.379Z,4.90
2018-04-13T20:20:22.430Z,5.13
2018-04-13T20:22:51.342Z,4.97
2018-04-13T20:25:19.348Z,4.73
2018-04-13T20:27:47.597Z,5.60
2018-04-13T20:30:15.613Z,5.40
2018-04-13T20:32:43.621Z,4.63
2018-04-13T20:35:11.799Z,4.87
2018-04-13T20:37:39.698Z,4.90
2018-04-13T20:40:07.486Z,4.90
2018-04-13T20:42:35.423Z,6.50
2018-04-13T20:45:03.763Z,5.73
2018-04-13T20:47:31.695Z,4.67
2018-04-13T20:49:59.825Z,5.33
2018-04-13T20:52:27.855Z,5.07
2018-04-13T20:54:56.623Z,5.60
2018-04-13T20:57:24.599Z,6.37
2018-04-13T20:59:53.310Z,6.37
2018-04-13T21:02:22.007Z,6.83
2018-04-13T21:04:50.160Z,6.60
2018-04-13T21:07:17.956Z,7.60
2018-04-13T21:09:46.701Z,7.03
2018-04-13T21:12:14.748Z,6.70
2018-04-13T21:14:42.976Z,7.73
2018-04-13T21:17:10.906Z,7.20
2018-04-13T21:19:38.957Z,8.93
2018-04-13T21:22:07.871Z,6.63
2018-04-13T21:24:37.249Z,6.27
2018-04-13T21:27:05.354Z,6.83
2018-04-13T21:29:34.065Z,8.37
2018-04-13T21:32:02.164Z,7.03
2018-04-13T21:34:30.925Z,6.27
2018-04-13T21:36:58.854Z,7.07
2018-04-13T21:39:26.712Z,6.37
2018-04-13T21:41:54.581Z,5.90
2018-04-13T21:44:22.426Z,6.73
2018-04-13T21:46:50.605Z,5.63
2018-04-13T21:49:18.481Z,6.83
2018-04-13T21:51:46.576Z,7.77
2018-04-13T21:54:14.656Z,6.07
2018-04-13T21:56:42.732Z,5.40
2018-04-13T21:59:10.833Z,5.50
2018-04-13T22:01:38.573Z,5.80
2018-04-13T22:04:06.850Z,6.67
2018-04-13T22:06:34.685Z,6.13
2018-04-13T22:09:02.754Z,5.83
2018-04-13T22:11:30.687Z,6.10
2018-04-13T22:14:11.059Z,7.20
2018-04-13T22:16:40.681Z,6.33
2018-04-13T22:19:08.776Z,6.33
2018-04-13T22:21:37.492Z,5.90
2018-04-13T22:24:06.152Z,5.53
2018-04-13T22:26:33.977Z,6.70
2018-04-13T22:29:02.745Z,5.90
2018-04-13T22:31:32.491Z,7.13
2018-04-13T22:34:00.536Z,5.30
2018-04-13T22:36:28.498Z,5.83
2018-04-13T22:38:56.594Z,6.53
2018-04-13T22:41:24.489Z,9.67
2018-04-13T22:43:52.346Z,7.77
2018-04-13T22:46:20.076Z,8.03
2018-04-13T22:48:48.145Z,5.70
2018-04-13T22:51:16.009Z,6.17
2018-04-13T22:53:43.968Z,5.43
2018-04-13T22:56:11.834Z,5.77
2018-04-13T22:58:40.389Z,5.67
2018-04-13T23:01:09.295Z,6.37
2018-04-13T23:03:37.545Z,5.80
2018-04-13T23:06:05.634Z,13.43
2018-04-13T23:08:34.499Z,5.70
2018-04-13T23:11:03.675Z,5.67
2018-04-13T23:13:32.213Z,5.70
2018-04-13T23:16:00.051Z,5.10
2018-04-13T23:18:28.420Z,6.20
2018-04-13T23:20:56.154Z,4.80
2018-04-13T23:23:24.219Z,5.50
2018-04-13T23:25:52.008Z,4.43
2018-04-13T23:28:19.936Z,5.30
2018-04-13T23:30:47.932Z,5.00
2018-04-13T23:33:15.695Z,4.43
2018-04-13T23:35:43.702Z,4.80
2018-04-13T23:38:11.950Z,5.90
2018-04-13T23:40:40.043Z,5.53
2018-04-13T23:43:07.791Z,5.67
2018-04-13T23:45:35.619Z,5.60
2018-04-13T23:48:03.397Z,5.60
2018-04-13T23:56:15.574Z,5.30
2018-04-13T23:58:43.500Z,4.90
